sensor_id;sensor_type;location;lat;lon;timestamp;pressure;altitude;pressure_sealevel;temperature;humidity
37368;BME280;23240;43.210;27.910;2022-07-23T00:00:39;101017.28;;;20.88;100.00
37368;BME280;23240;43.210;27.910;2022-07-23T00:03:04;101018.03;;;20.82;100.00
37368;BME280;23240;43.210;27.910;2022-07-23T00:05:30;101019.56;;;20.85;99.09
37368;BME280;23240;43.210;27.910;2022-07-23T00:07:55;101020.91;;;20.89;96.28
37368;BME280;23240;43.210;27.910;2022-07-23T00:10:20;101016.28;;;20.89;94.89
37368;BME280;23240;43.210;27.910;2022-07-23T00:12:46;101018.06;;;20.97;91.79
37368;BME280;23240;43.210;27.910;2022-07-23T00:15:11;101025.19;;;20.98;89.30
37368;BME280;23240;43.210;27.910;2022-07-23T00:17:36;101019.75;;;20.98;88.54
37368;BME280;23240;43.210;27.910;2022-07-23T00:20:02;101016.88;;;20.99;87.79
37368;BME280;23240;43.210;27.910;2022-07-23T00:22:28;101024.34;;;20.97;87.57
37368;BME280;23240;43.210;27.910;2022-07-23T00:24:54;101016.88;;;20.99;86.74
37368;BME280;23240;43.210;27.910;2022-07-23T00:27:19;101016.03;;;20.99;86.19
37368;BME280;23240;43.210;27.910;2022-07-23T00:29:45;101012.25;;;21.00;86.00
37368;BME280;23240;43.210;27.910;2022-07-23T00:32:10;101014.97;;;21.00;85.73
37368;BME280;23240;43.210;27.910;2022-07-23T00:34:35;101011.03;;;21.02;85.50
37368;BME280;23240;43.210;27.910;2022-07-23T00:37:01;101012.75;;;21.03;85.15
37368;BME280;23240;43.210;27.910;2022-07-23T00:39:26;101010.66;;;21.05;84.49
37368;BME280;23240;43.210;27.910;2022-07-23T00:41:51;101017.78;;;21.07;84.19
37368;BME280;23240;43.210;27.910;2022-07-23T00:44:20;101015.91;;;21.07;83.25
37368;BME280;23240;43.210;27.910;2022-07-23T00:46:47;101021.19;;;21.09;82.25
37368;BME280;23240;43.210;27.910;2022-07-23T00:49:13;101022.41;;;21.06;82.10
37368;BME280;23240;43.210;27.910;2022-07-23T00:51:38;101019.38;;;21.01;82.40
37368;BME280;23240;43.210;27.910;2022-07-23T00:54:03;101024.00;;;21.00;82.14
37368;BME280;23240;43.210;27.910;2022-07-23T00:56:29;101017.22;;;20.96;81.97
37368;BME280;23240;43.210;27.910;2022-07-23T00:58:55;101019.94;;;20.96;82.42
37368;BME280;23240;43.210;27.910;2022-07-23T01:01:21;101021.81;;;20.96;81.68
37368;BME280;23240;43.210;27.910;2022-07-23T01:03:46;101013.47;;;20.97;81.72
37368;BME280;23240;43.210;27.910;2022-07-23T01:06:11;101010.56;;;20.99;80.99
37368;BME280;23240;43.210;27.910;2022-07-23T01:08:37;101006.25;;;21.04;79.96
37368;BME280;23240;43.210;27.910;2022-07-23T01:11:03;101009.81;;;21.05;79.04
37368;BME280;23240;43.210;27.910;2022-07-23T01:13:29;101008.56;;;21.08;78.73
37368;BME280;23240;43.210;27.910;2022-07-23T01:15:54;101004.84;;;21.09;77.78
37368;BME280;23240;43.210;27.910;2022-07-23T01:18:19;101003.06;;;21.16;76.89
37368;BME280;23240;43.210;27.910;2022-07-23T01:20:45;100996.19;;;21.20;76.38
37368;BME280;23240;43.210;27.910;2022-07-23T01:23:10;101003.81;;;21.24;75.41
37368;BME280;23240;43.210;27.910;2022-07-23T01:25:35;101002.56;;;21.27;75.05
37368;BME280;23240;43.210;27.910;2022-07-23T01:28:01;101000.50;;;21.29;75.04
37368;BME280;23240;43.210;27.910;2022-07-23T01:30:26;100996.59;;;21.32;74.63
37368;BME280;23240;43.210;27.910;2022-07-23T01:32:51;100999.78;;;21.35;74.18
37368;BME280;23240;43.210;27.910;2022-07-23T01:35:17;100997.72;;;21.37;73.76
37368;BME280;23240;43.210;27.910;2022-07-23T01:37:42;101009.00;;;21.34;73.87
37368;BME280;23240;43.210;27.910;2022-07-23T01:40:07;101002.56;;;21.27;74.52
37368;BME280;23240;43.210;27.910;2022-07-23T01:42:33;100996.75;;;21.30;74.46
37368;BME280;23240;43.210;27.910;2022-07-23T01:44:59;100992.72;;;21.26;75.07
37368;BME280;23240;43.210;27.910;2022-07-23T01:47:24;100989.97;;;21.26;75.32
37368;BME280;23240;43.210;27.910;2022-07-23T01:49:49;100987.25;;;21.26;75.29
37368;BME280;23240;43.210;27.910;2022-07-23T01:52:15;100991.22;;;21.23;75.15
37368;BME280;23240;43.210;27.910;2022-07-23T01:54:41;100986.97;;;21.21;75.50
37368;BME280;23240;43.210;27.910;2022-07-23T01:57:07;100988.88;;;21.05;75.75
37368;BME280;23240;43.210;27.910;2022-07-23T01:59:32;100990.00;;;20.96;76.32
37368;BME280;23240;43.210;27.910;2022-07-23T02:01:57;100985.19;;;20.84;77.73
37368;BME280;23240;43.210;27.910;2022-07-23T02:04:23;101004.06;;;20.85;77.35
37368;BME280;23240;43.210;27.910;2022-07-23T02:06:49;100994.88;;;20.86;77.30
37368;BME280;23240;43.210;27.910;2022-07-23T02:09:14;100999.47;;;20.86;77.46
37368;BME280;23240;43.210;27.910;2022-07-23T02:11:40;100990.25;;;20.87;77.52
37368;BME280;23240;43.210;27.910;2022-07-23T02:14:05;100996.56;;;20.87;77.94
37368;BME280;23240;43.210;27.910;2022-07-23T02:16:31;101003.41;;;20.83;77.65
37368;BME280;23240;43.210;27.910;2022-07-23T02:18:56;100993.34;;;20.84;77.93
37368;BME280;23240;43.210;27.910;2022-07-23T02:21:21;100997.94;;;20.83;78.22
37368;BME280;23240;43.210;27.910;2022-07-23T02:23:47;100996.19;;;20.75;78.59
37368;BME280;23240;43.210;27.910;2022-07-23T02:26:12;101002.47;;;20.76;78.82
37368;BME280;23240;43.210;27.910;2022-07-23T02:28:37;100996.44;;;20.66;79.47
37368;BME280;23240;43.210;27.910;2022-07-23T02:31:03;100993.25;;;20.62;79.53
37368;BME280;23240;43.210;27.910;2022-07-23T02:33:28;101006.19;;;20.60;80.48
37368;BME280;23240;43.210;27.910;2022-07-23T02:35:54;101002.31;;;20.54;80.89
37368;BME280;23240;43.210;27.910;2022-07-23T02:38:19;100997.97;;;20.45;81.51
37368;BME280;23240;43.210;27.910;2022-07-23T02:40:44;101007.53;;;20.41;81.93
37368;BME280;23240;43.210;27.910;2022-07-23T02:43:10;101009.00;;;20.44;81.93
37368;BME280;23240;43.210;27.910;2022-07-23T02:45:35;101007.13;;;20.44;81.84
37368;BME280;23240;43.210;27.910;2022-07-23T02:48:00;101010.25;;;20.41;82.14
37368;BME280;23240;43.210;27.910;2022-07-23T02:50:26;101010.59;;;20.38;82.10
37368;BME280;23240;43.210;27.910;2022-07-23T02:52:51;101005.88;;;20.32;82.37
37368;BME280;23240;43.210;27.910;2022-07-23T02:55:16;101007.94;;;20.30;82.65
37368;BME280;23240;43.210;27.910;2022-07-23T02:57:42;101012.72;;;20.28;83.16
37368;BME280;23240;43.210;27.910;2022-07-23T03:00:08;101007.28;;;20.28;82.71
37368;BME280;23240;43.210;27.910;2022-07-23T03:02:33;101006.25;;;20.29;82.84
37368;BME280;23240;43.210;27.910;2022-07-23T03:04:59;101014.41;;;20.29;82.42
37368;BME280;23240;43.210;27.910;2022-07-23T03:07:24;101018.66;;;20.32;82.41
37368;BME280;23240;43.210;27.910;2022-07-23T03:09:50;101024.56;;;20.35;82.13
37368;BME280;23240;43.210;27.910;2022-07-23T03:12:15;101024.56;;;20.35;82.12
37368;BME280;23240;43.210;27.910;2022-07-23T03:14:41;101026.25;;;20.36;81.86
37368;BME280;23240;43.210;27.910;2022-07-23T03:17:06;101033.88;;;20.41;81.48
37368;BME280;23240;43.210;27.910;2022-07-23T03:19:32;101033.00;;;20.40;81.56
37368;BME280;23240;43.210;27.910;2022-07-23T03:21:57;101047.28;;;20.42;81.14
37368;BME280;23240;43.210;27.910;2022-07-23T03:24:22;101041.84;;;20.42;81.50
37368;BME280;23240;43.210;27.910;2022-07-23T03:27:07;101037.44;;;20.41;81.77
37368;BME280;23240;43.210;27.910;2022-07-23T03:29:33;101036.13;;;20.37;81.71
37368;BME280;23240;43.210;27.910;2022-07-23T03:31:58;101037.25;;;20.43;81.83
37368;BME280;23240;43.210;27.910;2022-07-23T03:34:23;101033.75;;;20.34;82.01
37368;BME280;23240;43.210;27.910;2022-07-23T03:36:49;101039.97;;;20.43;81.74
37368;BME280;23240;43.210;27.910;2022-07-23T03:39:14;101044.72;;;20.49;81.24
37368;BME280;23240;43.210;27.910;2022-07-23T03:41:39;101039.47;;;20.47;81.23
37368;BME280;23240;43.210;27.910;2022-07-23T03:44:05;101043.31;;;20.53;80.76
37368;BME280;23240;43.210;27.910;2022-07-23T03:46:30;101050.00;;;20.50;81.16
37368;BME280;23240;43.210;27.910;2022-07-23T03:48:55;101048.56;;;20.54;80.99
37368;BME280;23240;43.210;27.910;2022-07-23T03:51:20;101047.94;;;20.52;81.19
37368;BME280;23240;43.210;27.910;2022-07-23T03:53:46;101037.03;;;20.52;81.85
37368;BME280;23240;43.210;27.910;2022-07-23T03:56:11;101048.88;;;20.60;81.75
37368;BME280;23240;43.210;27.910;2022-07-23T03:58:36;101050.19;;;20.64;81.05
37368;BME280;23240;43.210;27.910;2022-07-23T04:01:02;101049.84;;;20.67;81.15
37368;BME280;23240;43.210;27.910;2022-07-23T04:03:27;101050.78;;;20.74;80.85
37368;BME280;23240;43.210;27.910;2022-07-23T04:05:52;101047.34;;;20.80;80.14
37368;BME280;23240;43.210;27.910;2022-07-23T04:08:18;101050.66;;;20.90;80.25
37368;BME280;23240;43.210;27.910;2022-07-23T04:10:43;101045.84;;;20.92;79.70
37368;BME280;23240;43.210;27.910;2022-07-23T04:13:08;101044.81;;;20.93;79.65
37368;BME280;23240;43.210;27.910;2022-07-23T04:15:34;101048.50;;;21.00;79.70
37368;BME280;23240;43.210;27.910;2022-07-23T04:17:59;101042.97;;;21.09;78.98
37368;BME280;23240;43.210;27.910;2022-07-23T04:20:24;101047.31;;;21.18;78.02
37368;BME280;23240;43.210;27.910;2022-07-23T04:22:49;101052.38;;;21.21;77.79
37368;BME280;23240;43.210;27.910;2022-07-23T04:25:15;101049.06;;;21.25;77.58
37368;BME280;23240;43.210;27.910;2022-07-23T04:27:42;101049.88;;;21.34;76.75
37368;BME280;23240;43.210;27.910;2022-07-23T04:30:08;101044.34;;;21.42;76.88
37368;BME280;23240;43.210;27.910;2022-07-23T04:32:34;101059.91;;;21.48;76.40
37368;BME280;23240;43.210;27.910;2022-07-23T04:34:59;101053.22;;;21.51;76.39
37368;BME280;23240;43.210;27.910;2022-07-23T04:37:24;101046.19;;;21.57;76.85
37368;BME280;23240;43.210;27.910;2022-07-23T04:39:50;101042.50;;;21.64;76.24
37368;BME280;23240;43.210;27.910;2022-07-23T04:42:15;101051.25;;;21.60;77.97
37368;BME280;23240;43.210;27.910;2022-07-23T04:44:40;101053.59;;;21.63;78.37
37368;BME280;23240;43.210;27.910;2022-07-23T04:47:06;101057.25;;;21.70;79.66
37368;BME280;23240;43.210;27.910;2022-07-23T04:49:31;101050.00;;;21.77;81.24
37368;BME280;23240;43.210;27.910;2022-07-23T04:51:56;101057.50;;;21.90;81.77
37368;BME280;23240;43.210;27.910;2022-07-23T04:54:22;101050.44;;;21.95;83.04
37368;BME280;23240;43.210;27.910;2022-07-23T04:56:47;101058.50;;;22.03;84.03
37368;BME280;23240;43.210;27.910;2022-07-23T04:59:13;101052.13;;;22.11;81.34
37368;BME280;23240;43.210;27.910;2022-07-23T05:01:38;101062.91;;;22.04;81.48
37368;BME280;23240;43.210;27.910;2022-07-23T05:04:03;101059.72;;;22.16;81.14
37368;BME280;23240;43.210;27.910;2022-07-23T05:06:29;101059.41;;;22.25;78.65
37368;BME280;23240;43.210;27.910;2022-07-23T05:08:54;101061.16;;;22.33;77.04
37368;BME280;23240;43.210;27.910;2022-07-23T05:11:20;101058.69;;;22.38;76.06
37368;BME280;23240;43.210;27.910;2022-07-23T05:13:45;101063.22;;;22.52;74.14
37368;BME280;23240;43.210;27.910;2022-07-23T05:16:11;101061.66;;;22.65;73.51
37368;BME280;23240;43.210;27.910;2022-07-23T05:18:36;101067.25;;;22.78;73.35
37368;BME280;23240;43.210;27.910;2022-07-23T05:21:01;101061.00;;;22.84;73.08
37368;BME280;23240;43.210;27.910;2022-07-23T05:23:27;101065.03;;;22.88;73.65
37368;BME280;23240;43.210;27.910;2022-07-23T05:25:52;101065.94;;;22.95;74.11
37368;BME280;23240;43.210;27.910;2022-07-23T05:28:17;101063.94;;;23.11;74.40
37368;BME280;23240;43.210;27.910;2022-07-23T05:30:45;101054.53;;;23.20;74.93
37368;BME280;23240;43.210;27.910;2022-07-23T05:33:11;101062.88;;;23.40;74.29
37368;BME280;23240;43.210;27.910;2022-07-23T05:35:36;101064.63;;;23.54;74.42
37368;BME280;23240;43.210;27.910;2022-07-23T05:38:01;101054.03;;;23.72;73.62
37368;BME280;23240;43.210;27.910;2022-07-23T05:40:27;101053.91;;;23.94;72.47
37368;BME280;23240;43.210;27.910;2022-07-23T05:42:52;101062.63;;;24.24;71.38
37368;BME280;23240;43.210;27.910;2022-07-23T05:45:17;101057.84;;;24.72;68.12
37368;BME280;23240;43.210;27.910;2022-07-23T05:47:43;101054.22;;;25.31;64.36
37368;BME280;23240;43.210;27.910;2022-07-23T05:50:09;101049.84;;;25.82;60.75
37368;BME280;23240;43.210;27.910;2022-07-23T05:52:35;101052.53;;;26.33;57.88
37368;BME280;23240;43.210;27.910;2022-07-23T05:55:00;101051.28;;;26.86;54.87
37368;BME280;23240;43.210;27.910;2022-07-23T05:57:26;101045.16;;;27.52;51.77
37368;BME280;23240;43.210;27.910;2022-07-23T05:59:51;101049.31;;;28.22;49.69
37368;BME280;23240;43.210;27.910;2022-07-23T06:02:16;101049.59;;;28.74;48.11
37368;BME280;23240;43.210;27.910;2022-07-23T06:04:41;101049.28;;;29.05;46.97
37368;BME280;23240;43.210;27.910;2022-07-23T06:07:07;101046.72;;;29.51;45.80
37368;BME280;23240;43.210;27.910;2022-07-23T06:09:32;101056.78;;;29.97;44.51
37368;BME280;23240;43.210;27.910;2022-07-23T06:11:57;101052.00;;;30.33;43.06
37368;BME280;23240;43.210;27.910;2022-07-23T06:14:23;101057.16;;;30.91;41.81
37368;BME280;23240;43.210;27.910;2022-07-23T06:16:48;101049.84;;;31.02;40.35
37368;BME280;23240;43.210;27.910;2022-07-23T06:19:13;101043.00;;;31.43;39.73
37368;BME280;23240;43.210;27.910;2022-07-23T06:21:39;101042.13;;;31.82;38.55
37368;BME280;23240;43.210;27.910;2022-07-23T06:24:04;101042.78;;;32.16;38.37
37368;BME280;23240;43.210;27.910;2022-07-23T06:26:30;101050.22;;;32.69;37.57
37368;BME280;23240;43.210;27.910;2022-07-23T06:28:55;101049.47;;;33.16;36.81
37368;BME280;23240;43.210;27.910;2022-07-23T06:31:20;101048.56;;;33.43;35.51
37368;BME280;23240;43.210;27.910;2022-07-23T06:33:46;101048.00;;;33.46;34.76
37368;BME280;23240;43.210;27.910;2022-07-23T06:36:11;101048.84;;;33.46;34.01
37368;BME280;23240;43.210;27.910;2022-07-23T06:38:36;101044.75;;;33.64;33.87
37368;BME280;23240;43.210;27.910;2022-07-23T06:41:02;101043.34;;;33.62;33.88
37368;BME280;23240;43.210;27.910;2022-07-23T06:43:27;101049.81;;;33.83;33.80
37368;BME280;23240;43.210;27.910;2022-07-23T06:45:52;101048.13;;;33.76;33.05
37368;BME280;23240;43.210;27.910;2022-07-23T06:48:18;101053.72;;;33.87;32.17
37368;BME280;23240;43.210;27.910;2022-07-23T06:50:43;101056.50;;;33.87;31.12
37368;BME280;23240;43.210;27.910;2022-07-23T06:53:08;101054.53;;;33.82;31.68
37368;BME280;23240;43.210;27.910;2022-07-23T06:55:33;101056.88;;;34.06;31.48
37368;BME280;23240;43.210;27.910;2022-07-23T06:58:03;101057.19;;;34.40;31.10
37368;BME280;23240;43.210;27.910;2022-07-23T07:00:28;101049.97;;;34.39;30.57
37368;BME280;23240;43.210;27.910;2022-07-23T07:02:55;101057.22;;;34.70;30.54
37368;BME280;23240;43.210;27.910;2022-07-23T07:05:20;101057.81;;;34.62;29.37
37368;BME280;23240;43.210;27.910;2022-07-23T07:07:46;101050.56;;;34.56;30.27
37368;BME280;23240;43.210;27.910;2022-07-23T07:10:11;101049.47;;;34.72;30.49
37368;BME280;23240;43.210;27.910;2022-07-23T07:12:36;101052.50;;;35.01;29.40
37368;BME280;23240;43.210;27.910;2022-07-23T07:15:02;101052.16;;;35.28;29.74
37368;BME280;23240;43.210;27.910;2022-07-23T07:17:29;101048.78;;;35.42;28.04
37368;BME280;23240;43.210;27.910;2022-07-23T07:19:55;101045.38;;;35.65;28.29
37368;BME280;23240;43.210;27.910;2022-07-23T07:22:20;101047.75;;;35.87;27.75
37368;BME280;23240;43.210;27.910;2022-07-23T07:24:45;101049.63;;;36.07;27.98
37368;BME280;23240;43.210;27.910;2022-07-23T07:27:11;101056.09;;;36.47;27.41
37368;BME280;23240;43.210;27.910;2022-07-23T07:29:36;101050.75;;;36.85;27.17
37368;BME280;23240;43.210;27.910;2022-07-23T07:32:01;101055.50;;;37.13;26.98
37368;BME280;23240;43.210;27.910;2022-07-23T07:34:26;101047.69;;;37.63;26.39
37368;BME280;23240;43.210;27.910;2022-07-23T07:36:52;101054.56;;;37.71;25.85
37368;BME280;23240;43.210;27.910;2022-07-23T07:39:17;101051.56;;;37.67;24.73
37368;BME280;23240;43.210;27.910;2022-07-23T07:41:42;101058.34;;;37.80;25.02
37368;BME280;23240;43.210;27.910;2022-07-23T07:44:08;101058.16;;;37.95;24.40
37368;BME280;23240;43.210;27.910;2022-07-23T07:46:33;101052.31;;;38.35;24.17
37368;BME280;23240;43.210;27.910;2022-07-23T07:48:59;101045.56;;;38.36;25.12
37368;BME280;23240;43.210;27.910;2022-07-23T07:51:24;101048.44;;;38.49;26.28
37368;BME280;23240;43.210;27.910;2022-07-23T07:53:49;101041.38;;;38.52;28.59
37368;BME280;23240;43.210;27.910;2022-07-23T07:56:15;101048.47;;;38.30;29.81
37368;BME280;23240;43.210;27.910;2022-07-23T07:58:40;101045.63;;;38.12;31.26
37368;BME280;23240;43.210;27.910;2022-07-23T08:01:05;101049.03;;;38.09;31.46
37368;BME280;23240;43.210;27.910;2022-07-23T08:03:31;101047.38;;;38.08;31.77
37368;BME280;23240;43.210;27.910;2022-07-23T08:05:56;101054.63;;;37.90;31.30
37368;BME280;23240;43.210;27.910;2022-07-23T08:08:22;101057.75;;;37.83;31.04
37368;BME280;23240;43.210;27.910;2022-07-23T08:10:47;101054.34;;;37.91;31.01
37368;BME280;23240;43.210;27.910;2022-07-23T08:13:13;101055.91;;;37.97;30.81
37368;BME280;23240;43.210;27.910;2022-07-23T08:15:43;101059.94;;;37.67;29.69
37368;BME280;23240;43.210;27.910;2022-07-23T08:18:08;101057.38;;;37.47;29.93
37368;BME280;23240;43.210;27.910;2022-07-23T08:20:34;101061.41;;;37.36;29.63
37368;BME280;23240;43.210;27.910;2022-07-23T08:23:02;101053.25;;;37.15;30.05
37368;BME280;23240;43.210;27.910;2022-07-23T08:25:31;101060.16;;;36.94;30.59
37368;BME280;23240;43.210;27.910;2022-07-23T08:27:57;101056.97;;;36.76;29.69
37368;BME280;23240;43.210;27.910;2022-07-23T08:30:23;101056.81;;;36.18;30.29
37368;BME280;23240;43.210;27.910;2022-07-23T08:35:17;101056.63;;;36.04;29.04
37368;BME280;23240;43.210;27.910;2022-07-23T08:37:43;101058.78;;;36.18;28.82
37368;BME280;23240;43.210;27.910;2022-07-23T08:40:08;101054.44;;;35.96;28.23
37368;BME280;23240;43.210;27.910;2022-07-23T08:42:34;101053.38;;;35.77;28.53
37368;BME280;23240;43.210;27.910;2022-07-23T08:45:03;101053.19;;;35.58;29.13
37368;BME280;23240;43.210;27.910;2022-07-23T08:47:29;101064.31;;;35.63;28.91
37368;BME280;23240;43.210;27.910;2022-07-23T08:49:54;101066.03;;;35.44;28.73
37368;BME280;23240;43.210;27.910;2022-07-23T08:52:20;101069.78;;;34.98;28.89
37368;BME280;23240;43.210;27.910;2022-07-23T08:54:46;101066.69;;;34.85;29.17
37368;BME280;23240;43.210;27.910;2022-07-23T08:57:11;101069.47;;;34.59;28.81
37368;BME280;23240;43.210;27.910;2022-07-23T08:59:37;101064.47;;;34.56;29.13
37368;BME280;23240;43.210;27.910;2022-07-23T09:02:02;101065.03;;;34.68;29.49
37368;BME280;23240;43.210;27.910;2022-07-23T09:04:27;101067.50;;;34.90;28.99
37368;BME280;23240;43.210;27.910;2022-07-23T09:06:53;101068.09;;;35.08;28.56
37368;BME280;23240;43.210;27.910;2022-07-23T09:09:18;101065.53;;;35.26;27.82
37368;BME280;23240;43.210;27.910;2022-07-23T09:11:47;101074.22;;;35.05;27.67
37368;BME280;23240;43.210;27.910;2022-07-23T09:14:13;101068.84;;;34.21;28.35
37368;BME280;23240;43.210;27.910;2022-07-23T09:16:38;101073.03;;;33.51;29.14
37368;BME280;23240;43.210;27.910;2022-07-23T09:19:04;101068.81;;;33.06;29.57
37368;BME280;23240;43.210;27.910;2022-07-23T09:21:33;101071.88;;;32.72;29.90
37368;BME280;23240;43.210;27.910;2022-07-23T09:24:03;101075.59;;;32.51;31.23
37368;BME280;23240;43.210;27.910;2022-07-23T09:26:36;101070.78;;;32.41;30.41
37368;BME280;23240;43.210;27.910;2022-07-23T09:31:34;101070.22;;;32.17;30.78
37368;BME280;23240;43.210;27.910;2022-07-23T09:34:06;101073.59;;;31.76;31.73
37368;BME280;23240;43.210;27.910;2022-07-23T09:36:32;101075.78;;;31.73;31.62
37368;BME280;23240;43.210;27.910;2022-07-23T09:38:57;101075.78;;;31.95;30.98
37368;BME280;23240;43.210;27.910;2022-07-23T09:41:22;101087.91;;;31.67;30.64
37368;BME280;23240;43.210;27.910;2022-07-23T09:43:54;101073.72;;;31.25;31.57
37368;BME280;23240;43.210;27.910;2022-07-23T09:46:20;101076.06;;;31.16;32.55
37368;BME280;23240;43.210;27.910;2022-07-23T09:48:47;101076.84;;;31.29;32.10
37368;BME280;23240;43.210;27.910;2022-07-23T09:51:12;101072.81;;;31.19;32.64
37368;BME280;23240;43.210;27.910;2022-07-23T09:53:41;101066.75;;;31.22;33.55
37368;BME280;23240;43.210;27.910;2022-07-23T09:56:06;101063.34;;;31.15;33.89
37368;BME280;23240;43.210;27.910;2022-07-23T09:58:32;101065.50;;;31.13;34.58
37368;BME280;23240;43.210;27.910;2022-07-23T10:00:58;101061.91;;;31.30;34.20
37368;BME280;23240;43.210;27.910;2022-07-23T10:03:24;101058.44;;;31.22;35.03
37368;BME280;23240;43.210;27.910;2022-07-23T10:05:49;101065.31;;;31.37;34.74
37368;BME280;23240;43.210;27.910;2022-07-23T10:08:16;101062.13;;;31.45;34.20
37368;BME280;23240;43.210;27.910;2022-07-23T10:10:42;101053.94;;;31.33;34.27
37368;BME280;23240;43.210;27.910;2022-07-23T10:13:09;101057.66;;;31.05;35.13
37368;BME280;23240;43.210;27.910;2022-07-23T10:15:40;101065.19;;;31.10;35.18
37368;BME280;23240;43.210;27.910;2022-07-23T10:18:07;101060.16;;;31.07;35.36
37368;BME280;23240;43.210;27.910;2022-07-23T10:20:32;101062.16;;;31.11;36.48
37368;BME280;23240;43.210;27.910;2022-07-23T10:23:19;101057.81;;;31.15;37.17
37368;BME280;23240;43.210;27.910;2022-07-23T10:26:02;101060.69;;;30.87;38.79
37368;BME280;23240;43.210;27.910;2022-07-23T10:36:12;101057.50;;;30.78;42.83
37368;BME280;23240;43.210;27.910;2022-07-23T10:41:11;101070.41;;;30.73;45.60
37368;BME280;23240;43.210;27.910;2022-07-23T10:43:36;101061.84;;;30.74;47.50
37368;BME280;23240;43.210;27.910;2022-07-23T10:46:21;101056.03;;;30.59;49.61
37368;BME280;23240;43.210;27.910;2022-07-23T10:49:20;101058.53;;;30.43;52.59
37368;BME280;23240;43.210;27.910;2022-07-23T10:51:36;101049.72;;;30.30;54.77
37368;BME280;23240;43.210;27.910;2022-07-23T10:54:01;101050.38;;;30.20;56.69
37368;BME280;23240;43.210;27.910;2022-07-23T10:59:10;101051.19;;;29.40;62.16
37368;BME280;23240;43.210;27.910;2022-07-23T11:01:36;101045.91;;;29.15;63.88
37368;BME280;23240;43.210;27.910;2022-07-23T11:04:02;101056.69;;;28.93;66.45
37368;BME280;23240;43.210;27.910;2022-07-23T11:09:26;101069.69;;;28.51;73.10
37368;BME280;23240;43.210;27.910;2022-07-23T11:17:19;101052.31;;;28.20;80.04
37368;BME280;23240;43.210;27.910;2022-07-23T11:20:19;101053.63;;;28.17;81.21
37368;BME280;23240;43.210;27.910;2022-07-23T11:25:08;101045.97;;;27.89;79.67
37368;BME280;23240;43.210;27.910;2022-07-23T11:27:43;101040.38;;;27.96;80.55
37368;BME280;23240;43.210;27.910;2022-07-23T11:30:10;101052.31;;;28.20;79.37
37368;BME280;23240;43.210;27.910;2022-07-23T11:32:39;101050.69;;;28.31;74.47
37368;BME280;23240;43.210;27.910;2022-07-23T11:35:21;101048.63;;;28.26;75.47
37368;BME280;23240;43.210;27.910;2022-07-23T11:37:47;101045.50;;;28.23;74.25
37368;BME280;23240;43.210;27.910;2022-07-23T11:40:16;101049.06;;;28.11;77.31
37368;BME280;23240;43.210;27.910;2022-07-23T11:43:15;101044.09;;;28.02;80.02
37368;BME280;23240;43.210;27.910;2022-07-23T11:45:37;101048.94;;;28.18;78.34
37368;BME280;23240;43.210;27.910;2022-07-23T11:48:03;101045.16;;;28.19;77.92
37368;BME280;23240;43.210;27.910;2022-07-23T11:50:29;101049.31;;;28.22;77.46
37368;BME280;23240;43.210;27.910;2022-07-23T11:52:54;101045.97;;;28.20;75.46
37368;BME280;23240;43.210;27.910;2022-07-23T11:55:20;101041.38;;;28.13;79.75
37368;BME280;23240;43.210;27.910;2022-07-23T11:57:46;101044.53;;;28.17;81.61
37368;BME280;23240;43.210;27.910;2022-07-23T12:00:15;101048.75;;;28.31;82.63
37368;BME280;23240;43.210;27.910;2022-07-23T12:02:48;101048.50;;;28.33;83.31
37368;BME280;23240;43.210;27.910;2022-07-23T12:05:14;101044.94;;;28.02;83.22
37368;BME280;23240;43.210;27.910;2022-07-23T12:07:41;101039.31;;;27.79;87.19
37368;BME280;23240;43.210;27.910;2022-07-23T12:10:13;101043.00;;;27.91;88.10
37368;BME280;23240;43.210;27.910;2022-07-23T12:12:44;101041.47;;;27.95;88.35
37368;BME280;23240;43.210;27.910;2022-07-23T12:15:10;101046.34;;;27.93;90.66
37368;BME280;23240;43.210;27.910;2022-07-23T12:17:37;101043.06;;;27.84;92.40
37368;BME280;23240;43.210;27.910;2022-07-23T12:20:04;101050.34;;;27.79;94.85
37368;BME280;23240;43.210;27.910;2022-07-23T12:22:34;101043.06;;;27.66;94.72
37368;BME280;23240;43.210;27.910;2022-07-23T12:25:01;101043.78;;;27.61;97.34
37368;BME280;23240;43.210;27.910;2022-07-23T12:27:28;101040.25;;;27.73;97.31
37368;BME280;23240;43.210;27.910;2022-07-23T12:29:53;101042.38;;;27.89;96.37
37368;BME280;23240;43.210;27.910;2022-07-23T12:32:20;101047.38;;;27.80;95.48
37368;BME280;23240;43.210;27.910;2022-07-23T12:34:45;101050.16;;;27.55;97.50
37368;BME280;23240;43.210;27.910;2022-07-23T12:39:55;101044.59;;;27.62;95.75
37368;BME280;23240;43.210;27.910;2022-07-23T12:42:20;101037.34;;;27.67;91.72
37368;BME280;23240;43.210;27.910;2022-07-23T12:45:05;101043.78;;;27.61;87.65
37368;BME280;23240;43.210;27.910;2022-07-23T12:47:31;101033.81;;;27.60;91.67
37368;BME280;23240;43.210;27.910;2022-07-23T12:53:12;101033.75;;;27.85;93.14
37368;BME280;23240;43.210;27.910;2022-07-23T12:55:38;101026.81;;;27.95;90.77
37368;BME280;23240;43.210;27.910;2022-07-23T12:58:04;101024.41;;;27.86;91.40
37368;BME280;23240;43.210;27.910;2022-07-23T13:00:30;101020.34;;;27.89;91.27
37368;BME280;23240;43.210;27.910;2022-07-23T13:02:56;101024.25;;;28.00;88.82
37368;BME280;23240;43.210;27.910;2022-07-23T13:05:21;101016.94;;;28.05;90.42
37368;BME280;23240;43.210;27.910;2022-07-23T13:07:46;101018.00;;;28.04;88.63
37368;BME280;23240;43.210;27.910;2022-07-23T13:10:12;101018.50;;;28.01;81.24